sensor_id;sensor_type;location;lat;lon;timestamp;P1;durP1;ratioP1;P2;durP2;ratioP2
23266;SDS011;11802;53.160;8.214;2022-10-16T00:00:56;6.80;;;3.57;;
23266;SDS011;11802;53.160;8.214;2022-10-16T00:03:22;7.57;;;3.77;;
23266;SDS011;11802;53.160;8.214;2022-10-16T00:05:48;7.00;;;3.80;;
23266;SDS011;11802;53.160;8.214;2022-10-16T00:08:14;7.93;;;3.50;;
23266;SDS011;11802;53.160;8.214;2022-10-16T00:10:39;5.70;;;3.17;;
23266;SDS011;11802;53.160;8.214;2022-10-16T00:13:05;7.20;;;3.30;;
23266;SDS011;11802;53.160;8.214;2022-10-16T00:15:35;7.03;;;3.60;;
23266;SDS011;11802;53.160;8.214;2022-10-16T00:18:01;6.83;;;2.93;;
23266;SDS011;11802;53.160;8.214;2022-10-16T00:20:28;9.13;;;3.40;;
23266;SDS011;11802;53.160;8.214;2022-10-16T00:22:56;7.00;;;3.37;;
23266;SDS011;11802;53.160;8.214;2022-10-16T00:25:22;6.50;;;2.97;;
23266;SDS011;11802;53.160;8.214;2022-10-16T00:27:47;7.57;;;3.20;;
23266;SDS011;11802;53.160;8.214;2022-10-16T00:30:13;7.90;;;3.70;;
23266;SDS011;11802;53.160;8.214;2022-10-16T00:32:38;6.77;;;3.20;;
23266;SDS011;11802;53.160;8.214;2022-10-16T00:35:04;4.70;;;3.10;;
23266;SDS011;11802;53.160;8.214;2022-10-16T00:37:30;7.17;;;3.30;;
23266;SDS011;11802;53.160;8.214;2022-10-16T00:39:55;8.83;;;3.23;;
23266;SDS011;11802;53.160;8.214;2022-10-16T00:42:21;5.30;;;2.97;;
23266;SDS011;11802;53.160;8.214;2022-10-16T00:44:51;8.77;;;3.13;;
23266;SDS011;11802;53.160;8.214;2022-10-16T00:47:39;10.77;;;3.30;;
23266;SDS011;11802;53.160;8.214;2022-10-16T00:50:24;6.40;;;2.70;;
23266;SDS011;11802;53.160;8.214;2022-10-16T00:52:54;6.40;;;2.80;;
23266;SDS011;11802;53.160;8.214;2022-10-16T00:55:20;8.17;;;3.20;;
23266;SDS011;11802;53.160;8.214;2022-10-16T00:57:46;6.10;;;2.90;;
23266;SDS011;11802;53.160;8.214;2022-10-16T01:00:14;5.43;;;2.80;;
23266;SDS011;11802;53.160;8.214;2022-10-16T01:02:43;5.77;;;2.63;;
23266;SDS011;11802;53.160;8.214;2022-10-16T01:05:08;5.73;;;2.50;;
23266;SDS011;11802;53.160;8.214;2022-10-16T01:10:51;5.63;;;3.27;;
23266;SDS011;11802;53.160;8.214;2022-10-16T01:13:24;5.73;;;2.70;;
23266;SDS011;11802;53.160;8.214;2022-10-16T01:15:58;8.87;;;2.90;;
23266;SDS011;11802;53.160;8.214;2022-10-16T01:21:09;6.43;;;2.93;;
23266;SDS011;11802;53.160;8.214;2022-10-16T01:29:33;9.23;;;3.17;;
23266;SDS011;11802;53.160;8.214;2022-10-16T01:32:01;7.57;;;3.00;;
23266;SDS011;11802;53.160;8.214;2022-10-16T01:34:36;9.00;;;3.70;;
23266;SDS011;11802;53.160;8.214;2022-10-16T01:37:12;5.73;;;2.53;;
23266;SDS011;11802;53.160;8.214;2022-10-16T01:39:45;6.00;;;2.50;;
23266;SDS011;11802;53.160;8.214;2022-10-16T01:42:16;5.50;;;2.47;;
23266;SDS011;11802;53.160;8.214;2022-10-16T01:44:47;6.03;;;2.60;;
23266;SDS011;11802;53.160;8.214;2022-10-16T01:47:13;5.73;;;2.40;;
23266;SDS011;11802;53.160;8.214;2022-10-16T01:49:40;5.23;;;2.60;;
23266;SDS011;11802;53.160;8.214;2022-10-16T01:52:09;7.97;;;2.70;;
23266;SDS011;11802;53.160;8.214;2022-10-16T01:54:39;8.00;;;2.60;;
23266;SDS011;11802;53.160;8.214;2022-10-16T02:00:30;4.80;;;2.23;;
23266;SDS011;11802;53.160;8.214;2022-10-16T02:02:56;6.00;;;2.63;;
23266;SDS011;11802;53.160;8.214;2022-10-16T02:05:31;6.13;;;2.27;;
23266;SDS011;11802;53.160;8.214;2022-10-16T02:08:02;5.33;;;2.47;;
23266;SDS011;11802;53.160;8.214;2022-10-16T02:10:28;7.10;;;2.70;;
23266;SDS011;11802;53.160;8.214;2022-10-16T02:16:02;8.17;;;2.53;;
23266;SDS011;11802;53.160;8.214;2022-10-16T02:18:27;6.03;;;2.37;;
23266;SDS011;11802;53.160;8.214;2022-10-16T02:26:21;7.87;;;2.77;;
23266;SDS011;11802;53.160;8.214;2022-10-16T02:28:53;4.57;;;2.30;;
23266;SDS011;11802;53.160;8.214;2022-10-16T02:31:26;7.07;;;2.17;;
23266;SDS011;11802;53.160;8.214;2022-10-16T02:33:56;9.10;;;2.70;;
23266;SDS011;11802;53.160;8.214;2022-10-16T02:36:23;9.40;;;2.43;;
23266;SDS011;11802;53.160;8.214;2022-10-16T02:38:50;10.50;;;2.23;;
23266;SDS011;11802;53.160;8.214;2022-10-16T02:41:17;6.70;;;2.40;;
23266;SDS011;11802;53.160;8.214;2022-10-16T02:43:45;5.63;;;2.37;;
23266;SDS011;11802;53.160;8.214;2022-10-16T02:46:10;6.67;;;2.60;;
23266;SDS011;11802;53.160;8.214;2022-10-16T02:48:36;6.63;;;2.33;;
23266;SDS011;11802;53.160;8.214;2022-10-16T02:51:01;7.80;;;2.30;;
23266;SDS011;11802;53.160;8.214;2022-10-16T02:53:27;6.50;;;2.07;;
23266;SDS011;11802;53.160;8.214;2022-10-16T02:55:52;6.70;;;2.30;;
23266;SDS011;11802;53.160;8.214;2022-10-16T02:58:18;6.97;;;2.33;;
23266;SDS011;11802;53.160;8.214;2022-10-16T03:00:43;4.50;;;2.47;;
23266;SDS011;11802;53.160;8.214;2022-10-16T03:03:09;5.60;;;2.30;;
23266;SDS011;11802;53.160;8.214;2022-10-16T03:05:34;5.50;;;2.63;;
23266;SDS011;11802;53.160;8.214;2022-10-16T03:08:00;7.80;;;2.80;;
23266;SDS011;11802;53.160;8.214;2022-10-16T03:10:26;3.63;;;1.97;;
23266;SDS011;11802;53.160;8.214;2022-10-16T03:12:52;3.47;;;2.00;;
23266;SDS011;11802;53.160;8.214;2022-10-16T03:15:17;5.03;;;2.10;;
23266;SDS011;11802;53.160;8.214;2022-10-16T03:17:43;5.50;;;1.83;;
23266;SDS011;11802;53.160;8.214;2022-10-16T03:20:08;3.97;;;2.13;;
23266;SDS011;11802;53.160;8.214;2022-10-16T03:22:34;5.03;;;2.13;;
23266;SDS011;11802;53.160;8.214;2022-10-16T03:25:00;5.03;;;2.43;;
23266;SDS011;11802;53.160;8.214;2022-10-16T03:27:25;4.53;;;2.03;;
23266;SDS011;11802;53.160;8.214;2022-10-16T03:29:51;4.70;;;2.00;;
23266;SDS011;11802;53.160;8.214;2022-10-16T03:32:17;4.53;;;2.40;;
23266;SDS011;11802;53.160;8.214;2022-10-16T03:34:43;7.87;;;2.47;;
23266;SDS011;11802;53.160;8.214;2022-10-16T03:37:08;8.30;;;2.83;;
23266;SDS011;11802;53.160;8.214;2022-10-16T03:39:34;4.93;;;2.70;;
23266;SDS011;11802;53.160;8.214;2022-10-16T03:41:59;7.73;;;2.40;;
23266;SDS011;11802;53.160;8.214;2022-10-16T03:44:25;6.17;;;2.87;;
23266;SDS011;11802;53.160;8.214;2022-10-16T03:46:50;6.67;;;2.63;;
23266;SDS011;11802;53.160;8.214;2022-10-16T03:49:16;7.77;;;2.60;;
23266;SDS011;11802;53.160;8.214;2022-10-16T03:51:41;8.17;;;3.10;;
23266;SDS011;11802;53.160;8.214;2022-10-16T03:54:07;5.57;;;3.37;;
23266;SDS011;11802;53.160;8.214;2022-10-16T03:56:34;6.53;;;2.90;;
23266;SDS011;11802;53.160;8.214;2022-10-16T03:58:59;9.47;;;3.07;;
23266;SDS011;11802;53.160;8.214;2022-10-16T04:01:25;6.37;;;3.07;;
23266;SDS011;11802;53.160;8.214;2022-10-16T04:03:50;7.60;;;3.17;;
23266;SDS011;11802;53.160;8.214;2022-10-16T04:06:16;6.80;;;3.03;;
23266;SDS011;11802;53.160;8.214;2022-10-16T04:08:44;9.17;;;3.60;;
23266;SDS011;11802;53.160;8.214;2022-10-16T04:11:10;9.27;;;3.43;;
23266;SDS011;11802;53.160;8.214;2022-10-16T04:13:35;7.47;;;3.60;;
23266;SDS011;11802;53.160;8.214;2022-10-16T04:16:01;6.83;;;3.83;;
23266;SDS011;11802;53.160;8.214;2022-10-16T04:18:27;8.40;;;3.70;;
23266;SDS011;11802;53.160;8.214;2022-10-16T04:20:53;8.90;;;3.90;;
23266;SDS011;11802;53.160;8.214;2022-10-16T04:23:19;10.30;;;3.80;;
23266;SDS011;11802;53.160;8.214;2022-10-16T04:25:44;8.57;;;4.33;;
23266;SDS011;11802;53.160;8.214;2022-10-16T04:28:10;7.13;;;4.00;;
23266;SDS011;11802;53.160;8.214;2022-10-16T04:30:37;8.13;;;4.33;;
23266;SDS011;11802;53.160;8.214;2022-10-16T04:33:04;10.17;;;3.93;;
23266;SDS011;11802;53.160;8.214;2022-10-16T04:35:29;6.07;;;4.10;;
23266;SDS011;11802;53.160;8.214;2022-10-16T04:37:57;13.60;;;4.20;;
23266;SDS011;11802;53.160;8.214;2022-10-16T04:40:23;10.50;;;4.90;;
23266;SDS011;11802;53.160;8.214;2022-10-16T04:42:48;9.73;;;4.50;;
23266;SDS011;11802;53.160;8.214;2022-10-16T04:45:14;10.40;;;4.77;;
23266;SDS011;11802;53.160;8.214;2022-10-16T04:47:39;9.03;;;4.90;;
23266;SDS011;11802;53.160;8.214;2022-10-16T04:50:05;9.43;;;4.77;;
23266;SDS011;11802;53.160;8.214;2022-10-16T04:52:31;13.10;;;6.10;;
23266;SDS011;11802;53.160;8.214;2022-10-16T04:54:57;8.97;;;4.93;;
23266;SDS011;11802;53.160;8.214;2022-10-16T04:57:29;8.93;;;5.23;;
23266;SDS011;11802;53.160;8.214;2022-10-16T04:59:55;13.10;;;6.00;;
23266;SDS011;11802;53.160;8.214;2022-10-16T05:02:20;10.00;;;6.00;;
23266;SDS011;11802;53.160;8.214;2022-10-16T05:04:46;10.53;;;5.67;;
23266;SDS011;11802;53.160;8.214;2022-10-16T05:07:11;10.53;;;5.83;;
23266;SDS011;11802;53.160;8.214;2022-10-16T05:09:37;10.53;;;5.87;;
23266;SDS011;11802;53.160;8.214;2022-10-16T05:12:02;12.93;;;6.70;;
23266;SDS011;11802;53.160;8.214;2022-10-16T05:14:28;11.63;;;7.63;;
23266;SDS011;11802;53.160;8.214;2022-10-16T05:16:54;13.20;;;7.67;;
23266;SDS011;11802;53.160;8.214;2022-10-16T05:19:19;11.47;;;6.93;;
23266;SDS011;11802;53.160;8.214;2022-10-16T05:21:45;14.20;;;7.27;;
23266;SDS011;11802;53.160;8.214;2022-10-16T05:24:10;12.60;;;7.47;;
23266;SDS011;11802;53.160;8.214;2022-10-16T05:26:36;14.13;;;8.07;;
23266;SDS011;11802;53.160;8.214;2022-10-16T05:29:01;16.60;;;8.13;;
23266;SDS011;11802;53.160;8.214;2022-10-16T05:31:28;11.23;;;7.33;;
23266;SDS011;11802;53.160;8.214;2022-10-16T05:33:57;14.77;;;7.37;;
23266;SDS011;11802;53.160;8.214;2022-10-16T05:36:26;12.13;;;7.37;;
23266;SDS011;11802;53.160;8.214;2022-10-16T05:38:52;12.77;;;7.73;;
23266;SDS011;11802;53.160;8.214;2022-10-16T05:41:18;10.23;;;6.27;;
23266;SDS011;11802;53.160;8.214;2022-10-16T05:43:46;15.60;;;8.07;;
23266;SDS011;11802;53.160;8.214;2022-10-16T05:46:12;16.70;;;8.07;;
23266;SDS011;11802;53.160;8.214;2022-10-16T05:48:38;11.70;;;7.17;;
23266;SDS011;11802;53.160;8.214;2022-10-16T05:51:04;12.63;;;7.40;;
23266;SDS011;11802;53.160;8.214;2022-10-16T05:53:32;13.33;;;7.17;;
23266;SDS011;11802;53.160;8.214;2022-10-16T05:55:59;13.43;;;7.57;;
23266;SDS011;11802;53.160;8.214;2022-10-16T05:58:27;13.00;;;7.33;;
23266;SDS011;11802;53.160;8.214;2022-10-16T06:01:03;12.83;;;7.47;;
23266;SDS011;11802;53.160;8.214;2022-10-16T06:03:30;13.40;;;8.03;;
23266;SDS011;11802;53.160;8.214;2022-10-16T06:05:55;14.27;;;9.67;;
23266;SDS011;11802;53.160;8.214;2022-10-16T06:08:21;14.40;;;8.30;;
23266;SDS011;11802;53.160;8.214;2022-10-16T06:10:48;13.13;;;7.43;;
23266;SDS011;11802;53.160;8.214;2022-10-16T06:13:24;13.97;;;8.30;;
23266;SDS011;11802;53.160;8.214;2022-10-16T06:15:50;10.50;;;7.63;;
23266;SDS011;11802;53.160;8.214;2022-10-16T06:18:15;11.10;;;7.20;;
23266;SDS011;11802;53.160;8.214;2022-10-16T06:20:41;14.10;;;7.80;;
23266;SDS011;11802;53.160;8.214;2022-10-16T06:23:06;12.40;;;7.13;;
23266;SDS011;11802;53.160;8.214;2022-10-16T06:25:32;14.03;;;8.17;;
23266;SDS011;11802;53.160;8.214;2022-10-16T06:27:57;13.10;;;7.60;;
23266;SDS011;11802;53.160;8.214;2022-10-16T06:30:23;13.93;;;7.93;;
23266;SDS011;11802;53.160;8.214;2022-10-16T06:32:48;11.30;;;7.50;;
23266;SDS011;11802;53.160;8.214;2022-10-16T06:35:14;13.43;;;7.57;;
23266;SDS011;11802;53.160;8.214;2022-10-16T06:37:40;10.77;;;6.70;;
23266;SDS011;11802;53.160;8.214;2022-10-16T06:40:06;12.53;;;7.27;;
23266;SDS011;11802;53.160;8.214;2022-10-16T06:42:32;8.53;;;5.63;;
23266;SDS011;11802;53.160;8.214;2022-10-16T06:44:57;11.77;;;6.57;;
23266;SDS011;11802;53.160;8.214;2022-10-16T06:47:23;12.13;;;6.80;;
23266;SDS011;11802;53.160;8.214;2022-10-16T06:49:48;10.23;;;6.53;;
23266;SDS011;11802;53.160;8.214;2022-10-16T06:52:14;10.00;;;5.87;;
23266;SDS011;11802;53.160;8.214;2022-10-16T06:54:39;14.10;;;6.83;;
23266;SDS011;11802;53.160;8.214;2022-10-16T06:57:05;11.33;;;6.30;;
23266;SDS011;11802;53.160;8.214;2022-10-16T06:59:30;11.13;;;5.50;;
23266;SDS011;11802;53.160;8.214;2022-10-16T07:01:56;10.90;;;6.03;;
23266;SDS011;11802;53.160;8.214;2022-10-16T07:04:22;10.83;;;6.33;;
23266;SDS011;11802;53.160;8.214;2022-10-16T07:06:47;11.13;;;5.40;;
23266;SDS011;11802;53.160;8.214;2022-10-16T07:09:13;11.63;;;5.70;;
23266;SDS011;11802;53.160;8.214;2022-10-16T07:11:38;8.80;;;5.43;;
23266;SDS011;11802;53.160;8.214;2022-10-16T07:14:08;6.80;;;4.47;;
23266;SDS011;11802;53.160;8.214;2022-10-16T07:16:40;8.23;;;5.00;;
23266;SDS011;11802;53.160;8.214;2022-10-16T07:19:06;8.53;;;5.07;;
23266;SDS011;11802;53.160;8.214;2022-10-16T07:21:33;6.50;;;4.60;;
23266;SDS011;11802;53.160;8.214;2022-10-16T07:24:02;6.23;;;4.27;;
23266;SDS011;11802;53.160;8.214;2022-10-16T07:26:31;8.40;;;4.20;;
23266;SDS011;11802;53.160;8.214;2022-10-16T07:28:58;6.40;;;4.20;;
23266;SDS011;11802;53.160;8.214;2022-10-16T07:31:23;5.80;;;3.70;;
23266;SDS011;11802;53.160;8.214;2022-10-16T07:33:50;5.63;;;3.67;;
23266;SDS011;11802;53.160;8.214;2022-10-16T07:36:17;6.97;;;3.90;;
23266;SDS011;11802;53.160;8.214;2022-10-16T07:38:43;7.90;;;3.77;;
23266;SDS011;11802;53.160;8.214;2022-10-16T07:41:16;8.63;;;3.50;;
23266;SDS011;11802;53.160;8.214;2022-10-16T07:43:50;6.40;;;3.60;;
23266;SDS011;11802;53.160;8.214;2022-10-16T07:46:17;5.85;;;3.20;;
23266;SDS011;11802;53.160;8.214;2022-10-16T07:48:44;5.35;;;2.60;;
23266;SDS011;11802;53.160;8.214;2022-10-16T07:51:12;8.15;;;2.85;;
23266;SDS011;11802;53.160;8.214;2022-10-16T07:53:38;5.00;;;2.90;;
23266;SDS011;11802;53.160;8.214;2022-10-16T07:56:05;6.07;;;2.65;;
23266;SDS011;11802;53.160;8.214;2022-10-16T07:58:32;3.10;;;2.20;;
23266;SDS011;11802;53.160;8.214;2022-10-16T08:00:58;5.47;;;2.45;;
23266;SDS011;11802;53.160;8.214;2022-10-16T08:03:24;5.03;;;2.75;;
23266;SDS011;11802;53.160;8.214;2022-10-16T08:05:50;6.47;;;2.47;;
23266;SDS011;11802;53.160;8.214;2022-10-16T08:08:16;5.65;;;2.13;;
23266;SDS011;11802;53.160;8.214;2022-10-16T08:10:43;4.35;;;2.10;;
23266;SDS011;11802;53.160;8.214;2022-10-16T08:13:09;4.43;;;1.88;;
23266;SDS011;11802;53.160;8.214;2022-10-16T08:15:35;3.08;;;2.10;;
23266;SDS011;11802;53.160;8.214;2022-10-16T08:18:01;7.20;;;3.30;;
23266;SDS011;11802;53.160;8.214;2022-10-16T08:20:29;4.85;;;2.17;;
23266;SDS011;11802;53.160;8.214;2022-10-16T08:22:55;5.55;;;1.80;;
23266;SDS011;11802;53.160;8.214;2022-10-16T08:25:21;4.95;;;2.80;;
23266;SDS011;11802;53.160;8.214;2022-10-16T08:27:47;5.30;;;2.15;;
23266;SDS011;11802;53.160;8.214;2022-10-16T08:30:13;3.80;;;1.80;;
23266;SDS011;11802;53.160;8.214;2022-10-16T08:32:39;2.65;;;1.60;;
23266;SDS011;11802;53.160;8.214;2022-10-16T08:35:06;5.40;;;2.17;;
23266;SDS011;11802;53.160;8.214;2022-10-16T08:37:36;4.43;;;1.75;;
23266;SDS011;11802;53.160;8.214;2022-10-16T08:40:03;5.05;;;1.73;;
23266;SDS011;11802;53.160;8.214;2022-10-16T08:50:48;4.20;;;1.55;;
23266;SDS011;11802;53.160;8.214;2022-10-16T08:53:24;7.95;;;1.98;;
23266;SDS011;11802;53.160;8.214;2022-10-16T08:55:54;5.82;;;1.48;;
23266;SDS011;11802;53.160;8.214;2022-10-16T08:58:21;7.07;;;1.80;;
23266;SDS011;11802;53.160;8.214;2022-10-16T09:00:57;3.25;;;1.55;;
23266;SDS011;11802;53.160;8.214;2022-10-16T09:06:36;4.70;;;2.03;;
23266;SDS011;11802;53.160;8.214;2022-10-16T09:18:26;6.55;;;1.85;;
23266;SDS011;11802;53.160;8.214;2022-10-16T09:20:49;5.93;;;1.63;;
23266;SDS011;11802;53.160;8.214;2022-10-16T09:25:46;4.00;;;1.75;;
23266;SDS011;11802;53.160;8.214;2022-10-16T09:28:14;7.00;;;1.60;;
23266;SDS011;11802;53.160;8.214;2022-10-16T09:30:40;12.20;;;1.70;;
23266;SDS011;11802;53.160;8.214;2022-10-16T09:33:06;5.53;;;1.50;;
23266;SDS011;11802;53.160;8.214;2022-10-16T09:38:04;4.57;;;1.45;;
23266;SDS011;11802;53.160;8.214;2022-10-16T09:40:31;3.78;;;1.02;;
23266;SDS011;11802;53.160;8.214;2022-10-16T09:48:36;3.70;;;1.40;;
23266;SDS011;11802;53.160;8.214;2022-10-16T09:51:16;2.83;;;1.23;;
23266;SDS011;11802;53.160;8.214;2022-10-16T09:56:25;4.80;;;1.38;;
23266;SDS011;11802;53.160;8.214;2022-10-16T09:58:52;5.57;;;1.55;;
23266;SDS011;11802;53.160;8.214;2022-10-16T10:01:22;6.13;;;1.65;;
23266;SDS011;11802;53.160;8.214;2022-10-16T10:03:55;4.50;;;1.38;;
23266;SDS011;11802;53.160;8.214;2022-10-16T10:06:27;4.95;;;1.30;;
23266;SDS011;11802;53.160;8.214;2022-10-16T10:08:56;4.85;;;1.52;;
23266;SDS011;11802;53.160;8.214;2022-10-16T10:11:45;3.65;;;1.17;;
23266;SDS011;11802;53.160;8.214;2022-10-16T10:14:23;16.83;;;6.75;;
23266;SDS011;11802;53.160;8.214;2022-10-16T10:17:06;6.55;;;2.58;;
23266;SDS011;11802;53.160;8.214;2022-10-16T10:19:40;2.95;;;0.80;;
23266;SDS011;11802;53.160;8.214;2022-10-16T10:22:29;6.10;;;1.10;;
23266;SDS011;11802;53.160;8.214;2022-10-16T10:25:12;3.30;;;1.10;;
23266;SDS011;11802;53.160;8.214;2022-10-16T10:39:04;5.38;;;1.00;;
23266;SDS011;11802;53.160;8.214;2022-10-16T10:41:53;5.85;;;1.30;;
23266;SDS011;11802;53.160;8.214;2022-10-16T10:47:21;6.10;;;1.20;;
23266;SDS011;11802;53.160;8.214;2022-10-16T10:50:18;4.38;;;1.05;;
23266;SDS011;11802;53.160;8.214;2022-10-16T10:53:21;5.95;;;1.30;;
23266;SDS011;11802;53.160;8.214;2022-10-16T11:01:50;4.05;;;0.90;;
23266;SDS011;11802;53.160;8.214;2022-10-16T11:04:28;4.38;;;0.88;;
23266;SDS011;11802;53.160;8.214;2022-10-16T11:07:06;4.65;;;1.30;;
23266;SDS011;11802;53.160;8.214;2022-10-16T11:09:49;3.60;;;0.93;;
23266;SDS011;11802;53.160;8.214;2022-10-16T11:12:19;5.00;;;0.95;;
23266;SDS011;11802;53.160;8.214;2022-10-16T11:15:02;5.47;;;1.20;;
23266;SDS011;11802;53.160;8.214;2022-10-16T11:17:44;4.88;;;0.90;;
23266;SDS011;11802;53.160;8.214;2022-10-16T11:20:25;4.85;;;1.23;;
23266;SDS011;11802;53.160;8.214;2022-10-16T11:22:54;4.50;;;1.10;;
23266;SDS011;11802;53.160;8.214;2022-10-16T11:25:35;6.63;;;1.27;;
23266;SDS011;11802;53.160;8.214;2022-10-16T11:28:02;5.60;;;1.08;;
23266;SDS011;11802;53.160;8.214;2022-10-16T11:30:40;7.90;;;1.08;;
23266;SDS011;11802;53.160;8.214;2022-10-16T11:36:03;4.65;;;1.13;;
23266;SDS011;11802;53.160;8.214;2022-10-16T11:39:16;6.20;;;1.35;;
23266;SDS011;11802;53.160;8.214;2022-10-16T11:48:00;6.32;;;1.05;;
23266;SDS011;11802;53.160;8.214;2022-10-16T11:53:51;6.30;;;1.05;;
23266;SDS011;11802;53.160;8.214;2022-10-16T11:56:25;6.80;;;1.17;;
23266;SDS011;11802;53.160;8.214;2022-10-16T11:58:54;6.85;;;1.33;;
23266;SDS011;11802;53.160;8.214;2022-10-16T12:04:29;6.95;;;1.58;;
23266;SDS011;11802;53.160;8.214;2022-10-16T12:07:17;8.77;;;1.50;;
23266;SDS011;11802;53.160;8.214;2022-10-16T12:09:48;6.30;;;1.27;;
23266;SDS011;11802;53.160;8.214;2022-10-16T12:15:02;8.45;;;3.05;;
23266;SDS011;11802;53.160;8.214;2022-10-16T12:17:43;9.23;;;1.38;;
23266;SDS011;11802;53.160;8.214;2022-10-16T12:22:37;8.82;;;2.20;;
23266;SDS011;11802;53.160;8.214;2022-10-16T12:25:26;6.00;;;1.77;;
23266;SDS011;11802;53.160;8.214;2022-10-16T12:28:22;3.90;;;1.33;;
23266;SDS011;11802;53.160;8.214;2022-10-16T12:30:55;4.85;;;1.63;;
23266;SDS011;11802;53.160;8.214;2022-10-16T12:35:48;5.50;;;1.00;;
23266;SDS011;11802;53.160;8.214;2022-10-16T12:38:16;3.88;;;1.10;;
23266;SDS011;11802;53.160;8.214;2022-10-16T12:40:58;6.68;;;1.50;;
23266;SDS011;11802;53.160;8.214;2022-10-16T12:43:28;3.75;;;1.10;;
23266;SDS011;11802;53.160;8.214;2022-10-16T12:48:33;5.85;;;1.13;;
23266;SDS011;11802;53.160;8.214;2022-10-16T12:51:22;8.35;;;1.50;;
23266;SDS011;11802;53.160;8.214;2022-10-16T12:54:13;5.28;;;1.30;;
23266;SDS011;11802;53.160;8.214;2022-10-16T12:56:52;3.55;;;1.38;;
23266;SDS011;11802;53.160;8.214;2022-10-16T12:59:38;6.40;;;1.23;;
23266;SDS011;11802;53.160;8.214;2022-10-16T13:02:14;7.18;;;1.73;;
23266;SDS011;11802;53.160;8.214;2022-10-16T13:10:27;6.28;;;1.25;;
23266;SDS011;11802;53.160;8.214;2022-10-16T13:16:05;6.35;;;1.27;;
23266;SDS011;11802;53.160;8.214;2022-10-16T13:24:39;8.60;;;1.42;;
23266;SDS011;11802;53.160;8.214;2022-10-16T13:32:40;5.13;;;1.25;;
23266;SDS011;11802;53.160;8.214;2022-10-16T13:35:23;10.15;;;1.27;;
23266;SDS011;11802;53.160;8.214;2022-10-16T13:37:51;7.25;;;1.20;;
23266;SDS011;11802;53.160;8.214;2022-10-16T13:40:27;5.60;;;1.23;;
23266;SDS011;11802;53.160;8.214;2022-10-16T13:42:53;10.18;;;1.58;;
23266;SDS011;11802;53.160;8.214;2022-10-16T13:45:20;7.45;;;1.48;;
23266;SDS011;11802;53.160;8.214;2022-10-16T13:47:46;7.05;;;1.13;;
23266;SDS011;11802;53.160;8.214;2022-10-16T13:50:14;9.55;;;1.65;;
23266;SDS011;11802;53.160;8.214;2022-10-16T13:52:41;5.25;;;1.33;;
23266;SDS011;11802;53.160;8.214;2022-10-16T13:55:14;7.13;;;1.58;;
23266;SDS011;11802;53.160;8.214;2022-10-16T13:57:42;6.40;;;1.17;;
23266;SDS011;11802;53.160;8.214;2022-10-16T14:00:18;8.55;;;1.67;;
23266;SDS011;11802;53.160;8.214;2022-10-16T14:02:43;5.72;;;1.50;;
23266;SDS011;11802;53.160;8.214;2022-10-16T14:05:09;7.47;;;1.55;;
23266;SDS011;11802;53.160;8.214;2022-10-16T14:07:35;3.63;;;1.10;;
23266;SDS011;11802;53.160;8.214;2022-10-16T14:10:04;6.93;;;1.38;;
23266;SDS011;11802;53.160;8.214;2022-10-16T14:12:32;6.05;;;1.20;;
23266;SDS011;11802;53.160;8.214;2022-10-16T14:14:58;5.70;;;1.73;;
23266;SDS011;11802;53.160;8.214;2022-10-16T14:17:32;5.95;;;1.42;;
23266;SDS011;11802;53.160;8.214;2022-10-16T14:20:00;6.30;;;1.67;;
23266;SDS011;11802;53.160;8.214;2022-10-16T14:25:30;6.57;;;1.20;;
23266;SDS011;11802;53.160;8.214;2022-10-16T14:28:00;6.03;;;1.35;;
23266;SDS011;11802;53.160;8.214;2022-10-16T14:30:52;6.90;;;1.30;;
23266;SDS011;11802;53.160;8.214;2022-10-16T14:36:05;5.70;;;1.33;;
23266;SDS011;11802;53.160;8.214;2022-10-16T14:38:38;7.45;;;1.17;;
23266;SDS011;11802;53.160;8.214;2022-10-16T14:41:05;6.45;;;1.25;;
23266;SDS011;11802;53.160;8.214;2022-10-16T14:43:32;7.78;;;1.30;;
23266;SDS011;11802;53.160;8.214;2022-10-16T14:46:01;7.50;;;1.60;;
23266;SDS011;11802;53.160;8.214;2022-10-16T14:48:39;6.05;;;1.35;;
23266;SDS011;11802;53.160;8.214;2022-10-16T14:51:08;5.55;;;1.10;;
23266;SDS011;11802;53.160;8.214;2022-10-16T14:53:38;6.22;;;1.20;;
23266;SDS011;11802;53.160;8.214;2022-10-16T14:56:22;5.35;;;1.77;;
23266;SDS011;11802;53.160;8.214;2022-10-16T14:58:50;5.47;;;1.30;;
23266;SDS011;11802;53.160;8.214;2022-10-16T15:01:17;6.40;;;1.23;;
23266;SDS011;11802;53.160;8.214;2022-10-16T15:03:43;7.45;;;1.10;;
23266;SDS011;11802;53.160;8.214;2022-10-16T15:06:11;7.00;;;1.15;;
23266;SDS011;11802;53.160;8.214;2022-10-16T15:08:40;11.18;;;1.48;;
23266;SDS011;11802;53.160;8.214;2022-10-16T15:11:09;7.28;;;1.50;;
23266;SDS011;11802;53.160;8.214;2022-10-16T15:13:38;5.50;;;1.23;;
23266;SDS011;11802;53.160;8.214;2022-10-16T15:16:04;4.60;;;1.42;;
23266;SDS011;11802;53.160;8.214;2022-10-16T15:18:29;8.32;;;2.03;;
23266;SDS011;11802;53.160;8.214;2022-10-16T15:20:55;6.40;;;1.33;;
23266;SDS011;11802;53.160;8.214;2022-10-16T15:23:21;7.85;;;2.08;;
23266;SDS011;11802;53.160;8.214;2022-10-16T15:25:48;7.55;;;1.90;;
23266;SDS011;11802;53.160;8.214;2022-10-16T15:28:15;7.55;;;1.90;;
23266;SDS011;11802;53.160;8.214;2022-10-16T15:30:41;9.13;;;2.03;;
23266;SDS011;11802;53.160;8.214;2022-10-16T15:33:11;7.95;;;2.15;;
23266;SDS011;11802;53.160;8.214;2022-10-16T15:35:38;10.73;;;2.72;;
23266;SDS011;11802;53.160;8.214;2022-10-16T15:38:04;11.45;;;3.00;;
23266;SDS011;11802;53.160;8.214;2022-10-16T15:40:30;7.97;;;2.70;;
23266;SDS011;11802;53.160;8.214;2022-10-16T15:42:55;9.27;;;2.90;;
23266;SDS011;11802;53.160;8.214;2022-10-16T15:45:21;10.95;;;1.80;;
23266;SDS011;11802;53.160;8.214;2022-10-16T15:47:46;5.10;;;1.98;;
23266;SDS011;11802;53.160;8.214;2022-10-16T15:50:12;23.65;;;9.77;;
23266;SDS011;11802;53.160;8.214;2022-10-16T15:52:40;11.70;;;3.78;;
23266;SDS011;11802;53.160;8.214;2022-10-16T15:55:07;16.92;;;5.03;;
23266;SDS011;11802;53.160;8.214;2022-10-16T15:57:34;18.30;;;6.32;;
23266;SDS011;11802;53.160;8.214;2022-10-16T16:00:03;26.23;;;9.30;;
23266;SDS011;11802;53.160;8.214;2022-10-16T16:02:33;25.98;;;9.35;;
23266;SDS011;11802;53.160;8.214;2022-10-16T16:04:58;60.63;;;24.33;;
23266;SDS011;11802;53.160;8.214;2022-10-16T16:07:24;32.33;;;11.05;;
23266;SDS011;11802;53.160;8.214;2022-10-16T16:09:49;38.75;;;15.70;;
23266;SDS011;11802;53.160;8.214;2022-10-16T16:12:16;15.63;;;5.45;;
23266;SDS011;11802;53.160;8.214;2022-10-16T16:14:41;11.63;;;4.97;;
23266;SDS011;11802;53.160;8.214;2022-10-16T16:17:10;15.45;;;6.00;;
23266;SDS011;11802;53.160;8.214;2022-10-16T16:19:36;21.95;;;7.13;;
23266;SDS011;11802;53.160;8.214;2022-10-16T16:22:02;12.73;;;5.13;;
23266;SDS011;11802;53.160;8.214;2022-10-16T16:24:27;10.55;;;3.25;;
23266;SDS011;11802;53.160;8.214;2022-10-16T16:26:53;12.20;;;3.15;;
23266;SDS011;11802;53.160;8.214;2022-10-16T16:29:19;7.13;;;2.33;;
23266;SDS011;11802;53.160;8.214;2022-10-16T16:31:44;8.70;;;2.47;;
23266;SDS011;11802;53.160;8.214;2022-10-16T16:34:12;7.63;;;2.00;;
23266;SDS011;11802;53.160;8.214;2022-10-16T16:36:38;7.90;;;2.33;;
23266;SDS011;11802;53.160;8.214;2022-10-16T16:39:05;6.22;;;2.00;;
23266;SDS011;11802;53.160;8.214;2022-10-16T16:41:31;12.10;;;3.70;;
23266;SDS011;11802;53.160;8.214;2022-10-16T16:44:01;12.48;;;4.38;;
23266;SDS011;11802;53.160;8.214;2022-10-16T16:46:32;15.23;;;5.13;;
23266;SDS011;11802;53.160;8.214;2022-10-16T16:48:58;11.43;;;4.13;;
23266;SDS011;11802;53.160;8.214;2022-10-16T16:51:24;13.80;;;3.43;;
23266;SDS011;11802;53.160;8.214;2022-10-16T16:53:51;13.37;;;4.50;;
23266;SDS011;11802;53.160;8.214;2022-10-16T16:56:18;23.03;;;10.43;;
23266;SDS011;11802;53.160;8.214;2022-10-16T16:58:47;18.83;;;7.20;;
23266;SDS011;11802;53.160;8.214;2022-10-16T17:01:14;11.53;;;4.87;;
23266;SDS011;11802;53.160;8.214;2022-10-16T17:03:41;12.23;;;4.00;;